sensor_id;sensor_type;location;lat;lon;timestamp;P1;durP1;ratioP1;P2;durP2;ratioP2
38021;SDS011;23832;43.216;27.946;2023-02-28T00:00:32;152.63;;;143.82;;
38021;SDS011;23832;43.216;27.946;2023-02-28T00:02:34;151.20;;;142.40;;
38021;SDS011;23832;43.216;27.946;2023-02-28T00:04:36;156.13;;;147.13;;
38021;SDS011;23832;43.216;27.946;2023-02-28T00:06:38;150.70;;;142.00;;
38021;SDS011;23832;43.216;27.946;2023-02-28T00:08:42;152.40;;;143.68;;
38021;SDS011;23832;43.216;27.946;2023-02-28T00:10:44;149.25;;;140.38;;
38021;SDS011;23832;43.216;27.946;2023-02-28T00:12:46;153.10;;;144.18;;
38021;SDS011;23832;43.216;27.946;2023-02-28T00:14:50;148.18;;;139.65;;
38021;SDS011;23832;43.216;27.946;2023-02-28T00:16:52;152.77;;;143.93;;
38021;SDS011;23832;43.216;27.946;2023-02-28T00:18:54;150.55;;;141.85;;
38021;SDS011;23832;43.216;27.946;2023-02-28T00:20:56;154.88;;;145.90;;
38021;SDS011;23832;43.216;27.946;2023-02-28T00:22:59;152.65;;;143.75;;
38021;SDS011;23832;43.216;27.946;2023-02-28T00:25:01;151.88;;;143.02;;
38021;SDS011;23832;43.216;27.946;2023-02-28T00:27:03;152.93;;;144.02;;
38021;SDS011;23832;43.216;27.946;2023-02-28T00:29:05;151.98;;;142.93;;
38021;SDS011;23832;43.216;27.946;2023-02-28T00:31:09;152.82;;;143.50;;
38021;SDS011;23832;43.216;27.946;2023-02-28T00:33:11;161.60;;;151.70;;
38021;SDS011;23832;43.216;27.946;2023-02-28T00:35:13;156.02;;;146.40;;
38021;SDS011;23832;43.216;27.946;2023-02-28T00:37:15;153.45;;;144.13;;
38021;SDS011;23832;43.216;27.946;2023-02-28T00:39:17;155.75;;;146.35;;
38021;SDS011;23832;43.216;27.946;2023-02-28T00:41:19;153.73;;;144.13;;
38021;SDS011;23832;43.216;27.946;2023-02-28T00:43:21;157.15;;;147.15;;
38021;SDS011;23832;43.216;27.946;2023-02-28T00:45:23;152.13;;;142.57;;
38021;SDS011;23832;43.216;27.946;2023-02-28T00:47:28;154.50;;;145.00;;
38021;SDS011;23832;43.216;27.946;2023-02-28T00:49:30;152.00;;;142.80;;
38021;SDS011;23832;43.216;27.946;2023-02-28T00:51:32;150.90;;;141.75;;
38021;SDS011;23832;43.216;27.946;2023-02-28T00:53:34;151.88;;;142.70;;
38021;SDS011;23832;43.216;27.946;2023-02-28T00:55:36;152.98;;;143.63;;
38021;SDS011;23832;43.216;27.946;2023-02-28T00:57:38;147.82;;;139.15;;
38021;SDS011;23832;43.216;27.946;2023-02-28T00:59:40;148.18;;;139.13;;
38021;SDS011;23832;43.216;27.946;2023-02-28T01:01:43;148.48;;;139.65;;
38021;SDS011;23832;43.216;27.946;2023-02-28T01:03:47;152.13;;;143.18;;
38021;SDS011;23832;43.216;27.946;2023-02-28T01:05:49;153.30;;;144.40;;
38021;SDS011;23832;43.216;27.946;2023-02-28T01:07:53;152.40;;;143.50;;
38021;SDS011;23832;43.216;27.946;2023-02-28T01:09:54;151.70;;;142.60;;
38021;SDS011;23832;43.216;27.946;2023-02-28T01:11:57;149.93;;;141.05;;
38021;SDS011;23832;43.216;27.946;2023-02-28T01:13:59;151.60;;;142.77;;
38021;SDS011;23832;43.216;27.946;2023-02-28T01:16:01;147.32;;;138.60;;
38021;SDS011;23832;43.216;27.946;2023-02-28T01:18:03;151.38;;;142.60;;
38021;SDS011;23832;43.216;27.946;2023-02-28T01:20:08;153.52;;;144.68;;
38021;SDS011;23832;43.216;27.946;2023-02-28T01:22:11;150.57;;;141.88;;
38021;SDS011;23832;43.216;27.946;2023-02-28T01:24:14;151.73;;;142.93;;
38021;SDS011;23832;43.216;27.946;2023-02-28T01:26:16;149.15;;;140.55;;
38021;SDS011;23832;43.216;27.946;2023-02-28T01:28:19;147.23;;;138.73;;
38021;SDS011;23832;43.216;27.946;2023-02-28T01:30:21;151.18;;;142.45;;
38021;SDS011;23832;43.216;27.946;2023-02-28T01:32:23;150.73;;;142.02;;
38021;SDS011;23832;43.216;27.946;2023-02-28T01:34:25;151.10;;;142.27;;
38021;SDS011;23832;43.216;27.946;2023-02-28T01:36:29;149.25;;;140.65;;
38021;SDS011;23832;43.216;27.946;2023-02-28T01:38:33;152.32;;;143.52;;
38021;SDS011;23832;43.216;27.946;2023-02-28T01:40:35;150.02;;;141.30;;
38021;SDS011;23832;43.216;27.946;2023-02-28T01:42:37;149.00;;;140.30;;
38021;SDS011;23832;43.216;27.946;2023-02-28T01:44:57;147.15;;;138.68;;
38021;SDS011;23832;43.216;27.946;2023-02-28T01:47:02;152.27;;;143.45;;
38021;SDS011;23832;43.216;27.946;2023-02-28T01:49:06;154.80;;;145.80;;
38021;SDS011;23832;43.216;27.946;2023-02-28T01:51:11;150.07;;;141.38;;
38021;SDS011;23832;43.216;27.946;2023-02-28T01:53:18;150.43;;;141.70;;
38021;SDS011;23832;43.216;27.946;2023-02-28T01:55:26;151.50;;;142.75;;
38021;SDS011;23832;43.216;27.946;2023-02-28T01:57:31;149.50;;;140.85;;
38021;SDS011;23832;43.216;27.946;2023-02-28T01:59:38;154.23;;;145.32;;
38021;SDS011;23832;43.216;27.946;2023-02-28T02:01:46;154.63;;;145.70;;
38021;SDS011;23832;43.216;27.946;2023-02-28T02:03:48;152.32;;;143.52;;
38021;SDS011;23832;43.216;27.946;2023-02-28T02:05:55;152.43;;;143.60;;
38021;SDS011;23832;43.216;27.946;2023-02-28T02:07:58;155.50;;;146.48;;
38021;SDS011;23832;43.216;27.946;2023-02-28T02:10:10;150.13;;;141.43;;
38021;SDS011;23832;43.216;27.946;2023-02-28T02:12:17;154.20;;;145.30;;
38021;SDS011;23832;43.216;27.946;2023-02-28T02:14:36;154.50;;;145.57;;
38021;SDS011;23832;43.216;27.946;2023-02-28T02:16:52;154.30;;;145.30;;
38021;SDS011;23832;43.216;27.946;2023-02-28T02:19:08;153.32;;;144.43;;
38021;SDS011;23832;43.216;27.946;2023-02-28T02:24:21;151.27;;;142.52;;
38021;SDS011;23832;43.216;27.946;2023-02-28T02:29:15;149.60;;;141.00;;
38021;SDS011;23832;43.216;27.946;2023-02-28T02:31:39;150.27;;;141.57;;
38021;SDS011;23832;43.216;27.946;2023-02-28T02:34:16;152.00;;;143.20;;
38021;SDS011;23832;43.216;27.946;2023-02-28T02:36:42;149.32;;;140.73;;
38021;SDS011;23832;43.216;27.946;2023-02-28T02:38:50;153.35;;;144.50;;
38021;SDS011;23832;43.216;27.946;2023-02-28T02:40:58;155.70;;;146.70;;
38021;SDS011;23832;43.216;27.946;2023-02-28T02:43:08;154.13;;;145.25;;
38021;SDS011;23832;43.216;27.946;2023-02-28T02:45:19;152.27;;;143.52;;
38021;SDS011;23832;43.216;27.946;2023-02-28T02:47:27;150.10;;;141.40;;
38021;SDS011;23832;43.216;27.946;2023-02-28T02:49:34;153.93;;;145.05;;
38021;SDS011;23832;43.216;27.946;2023-02-28T02:51:38;147.73;;;139.23;;
38021;SDS011;23832;43.216;27.946;2023-02-28T02:53:44;151.40;;;142.70;;
38021;SDS011;23832;43.216;27.946;2023-02-28T02:55:51;153.27;;;144.48;;
38021;SDS011;23832;43.216;27.946;2023-02-28T02:57:56;157.10;;;148.10;;
38021;SDS011;23832;43.216;27.946;2023-02-28T03:00:01;158.55;;;149.45;;
38021;SDS011;23832;43.216;27.946;2023-02-28T03:02:06;149.70;;;141.00;;
38021;SDS011;23832;43.216;27.946;2023-02-28T03:04:12;154.10;;;145.25;;
38021;SDS011;23832;43.216;27.946;2023-02-28T03:06:19;153.95;;;145.05;;
38021;SDS011;23832;43.216;27.946;2023-02-28T03:08:21;154.77;;;145.82;;
38021;SDS011;23832;43.216;27.946;2023-02-28T03:10:27;153.05;;;144.18;;
38021;SDS011;23832;43.216;27.946;2023-02-28T03:12:44;151.85;;;143.05;;
38021;SDS011;23832;43.216;27.946;2023-02-28T03:14:56;153.68;;;144.85;;
38021;SDS011;23832;43.216;27.946;2023-02-28T03:17:20;151.02;;;142.23;;
38021;SDS011;23832;43.216;27.946;2023-02-28T03:19:34;154.13;;;145.23;;
38021;SDS011;23832;43.216;27.946;2023-02-28T03:21:52;150.43;;;141.77;;
38021;SDS011;23832;43.216;27.946;2023-02-28T03:24:03;149.93;;;141.20;;
38021;SDS011;23832;43.216;27.946;2023-02-28T03:26:12;149.57;;;140.88;;
38021;SDS011;23832;43.216;27.946;2023-02-28T03:28:22;150.38;;;141.57;;
38021;SDS011;23832;43.216;27.946;2023-02-28T03:30:35;152.27;;;143.48;;
38021;SDS011;23832;43.216;27.946;2023-02-28T03:32:43;151.93;;;143.13;;
38021;SDS011;23832;43.216;27.946;2023-02-28T03:34:54;153.13;;;144.23;;
38021;SDS011;23832;43.216;27.946;2023-02-28T03:37:07;153.73;;;144.73;;
38021;SDS011;23832;43.216;27.946;2023-02-28T03:39:14;153.18;;;144.15;;
38021;SDS011;23832;43.216;27.946;2023-02-28T03:41:21;157.60;;;148.32;;
38021;SDS011;23832;43.216;27.946;2023-02-28T03:43:26;155.10;;;146.10;;
38021;SDS011;23832;43.216;27.946;2023-02-28T03:45:33;156.85;;;147.68;;
38021;SDS011;23832;43.216;27.946;2023-02-28T03:47:40;154.55;;;145.43;;
38021;SDS011;23832;43.216;27.946;2023-02-28T03:49:53;157.00;;;147.45;;
38021;SDS011;23832;43.216;27.946;2023-02-28T03:51:59;157.70;;;148.20;;
38021;SDS011;23832;43.216;27.946;2023-02-28T03:54:06;156.02;;;146.82;;
38021;SDS011;23832;43.216;27.946;2023-02-28T03:56:12;158.07;;;148.77;;
38021;SDS011;23832;43.216;27.946;2023-02-28T03:58:25;157.88;;;148.75;;
38021;SDS011;23832;43.216;27.946;2023-02-28T04:00:31;151.88;;;143.02;;
38021;SDS011;23832;43.216;27.946;2023-02-28T04:02:38;153.85;;;144.88;;
38021;SDS011;23832;43.216;27.946;2023-02-28T04:04:40;154.85;;;145.82;;
38021;SDS011;23832;43.216;27.946;2023-02-28T04:06:45;154.05;;;145.15;;
38021;SDS011;23832;43.216;27.946;2023-02-28T04:08:50;151.82;;;142.98;;
38021;SDS011;23832;43.216;27.946;2023-02-28T04:10:55;152.65;;;143.75;;
38021;SDS011;23832;43.216;27.946;2023-02-28T04:13:02;151.00;;;142.18;;
38021;SDS011;23832;43.216;27.946;2023-02-28T04:15:04;152.93;;;143.95;;
38021;SDS011;23832;43.216;27.946;2023-02-28T04:17:07;153.95;;;144.98;;
38021;SDS011;23832;43.216;27.946;2023-02-28T04:19:10;153.00;;;144.05;;
38021;SDS011;23832;43.216;27.946;2023-02-28T04:21:14;154.25;;;145.25;;
38021;SDS011;23832;43.216;27.946;2023-02-28T04:23:20;152.25;;;143.25;;
38021;SDS011;23832;43.216;27.946;2023-02-28T04:25:22;151.23;;;142.43;;
38021;SDS011;23832;43.216;27.946;2023-02-28T04:27:26;155.73;;;146.60;;
38021;SDS011;23832;43.216;27.946;2023-02-28T04:29:28;151.90;;;143.10;;
38021;SDS011;23832;43.216;27.946;2023-02-28T04:31:32;154.98;;;145.98;;
38021;SDS011;23832;43.216;27.946;2023-02-28T04:33:34;154.85;;;145.80;;
38021;SDS011;23832;43.216;27.946;2023-02-28T04:35:36;155.60;;;146.52;;
38021;SDS011;23832;43.216;27.946;2023-02-28T04:37:38;155.88;;;146.82;;
38021;SDS011;23832;43.216;27.946;2023-02-28T04:39:40;157.65;;;148.38;;
38021;SDS011;23832;43.216;27.946;2023-02-28T04:41:43;153.88;;;144.90;;
38021;SDS011;23832;43.216;27.946;2023-02-28T04:43:47;152.82;;;143.90;;
38021;SDS011;23832;43.216;27.946;2023-02-28T04:45:48;155.18;;;146.07;;
38021;SDS011;23832;43.216;27.946;2023-02-28T04:47:51;157.68;;;148.48;;
38021;SDS011;23832;43.216;27.946;2023-02-28T04:49:53;152.55;;;143.55;;
38021;SDS011;23832;43.216;27.946;2023-02-28T04:51:55;157.15;;;148.05;;
38021;SDS011;23832;43.216;27.946;2023-02-28T04:53:57;157.32;;;148.18;;
38021;SDS011;23832;43.216;27.946;2023-02-28T04:55:59;152.93;;;143.98;;
38021;SDS011;23832;43.216;27.946;2023-02-28T04:58:02;156.68;;;147.48;;
38021;SDS011;23832;43.216;27.946;2023-02-28T05:00:06;160.38;;;150.82;;
38021;SDS011;23832;43.216;27.946;2023-02-28T05:02:11;156.38;;;146.98;;
38021;SDS011;23832;43.216;27.946;2023-02-28T05:04:13;158.50;;;149.05;;
38021;SDS011;23832;43.216;27.946;2023-02-28T05:06:16;158.20;;;148.75;;
38021;SDS011;23832;43.216;27.946;2023-02-28T05:08:19;163.40;;;153.60;;
38021;SDS011;23832;43.216;27.946;2023-02-28T05:10:21;162.20;;;152.57;;
38021;SDS011;23832;43.216;27.946;2023-02-28T05:12:25;159.43;;;149.93;;
38021;SDS011;23832;43.216;27.946;2023-02-28T05:14:27;160.73;;;151.15;;
38021;SDS011;23832;43.216;27.946;2023-02-28T05:16:30;162.55;;;152.85;;
38021;SDS011;23832;43.216;27.946;2023-02-28T05:18:33;164.68;;;154.88;;
38021;SDS011;23832;43.216;27.946;2023-02-28T05:20:35;159.38;;;149.68;;
38021;SDS011;23832;43.216;27.946;2023-02-28T05:22:37;159.93;;;150.13;;
38021;SDS011;23832;43.216;27.946;2023-02-28T05:24:40;159.93;;;150.00;;
38021;SDS011;23832;43.216;27.946;2023-02-28T05:26:43;159.75;;;150.00;;
38021;SDS011;23832;43.216;27.946;2023-02-28T05:28:45;157.43;;;147.93;;
38021;SDS011;23832;43.216;27.946;2023-02-28T05:30:47;158.27;;;148.55;;
38021;SDS011;23832;43.216;27.946;2023-02-28T05:32:51;158.80;;;148.85;;
38021;SDS011;23832;43.216;27.946;2023-02-28T05:34:53;156.63;;;147.23;;
38021;SDS011;23832;43.216;27.946;2023-02-28T05:36:55;157.93;;;148.52;;
38021;SDS011;23832;43.216;27.946;2023-02-28T05:38:57;160.52;;;150.82;;
38021;SDS011;23832;43.216;27.946;2023-02-28T05:40:59;160.05;;;150.40;;
38021;SDS011;23832;43.216;27.946;2023-02-28T05:43:01;158.60;;;148.82;;
38021;SDS011;23832;43.216;27.946;2023-02-28T05:45:04;161.50;;;151.80;;
38021;SDS011;23832;43.216;27.946;2023-02-28T05:47:07;163.02;;;153.25;;
38021;SDS011;23832;43.216;27.946;2023-02-28T05:49:11;161.82;;;152.23;;
38021;SDS011;23832;43.216;27.946;2023-02-28T05:51:16;157.68;;;148.07;;
38021;SDS011;23832;43.216;27.946;2023-02-28T05:53:18;157.68;;;147.85;;
38021;SDS011;23832;43.216;27.946;2023-02-28T05:55:20;154.52;;;145.07;;
38021;SDS011;23832;43.216;27.946;2023-02-28T05:57:22;158.82;;;149.23;;
38021;SDS011;23832;43.216;27.946;2023-02-28T05:59:25;160.20;;;150.60;;
38021;SDS011;23832;43.216;27.946;2023-02-28T06:01:34;154.77;;;145.20;;
38021;SDS011;23832;43.216;27.946;2023-02-28T06:03:37;162.20;;;152.23;;
38021;SDS011;23832;43.216;27.946;2023-02-28T06:05:41;157.63;;;148.07;;
38021;SDS011;23832;43.216;27.946;2023-02-28T06:07:43;161.73;;;151.93;;
38021;SDS011;23832;43.216;27.946;2023-02-28T06:09:45;157.90;;;148.23;;
38021;SDS011;23832;43.216;27.946;2023-02-28T06:11:47;163.60;;;153.68;;
38021;SDS011;23832;43.216;27.946;2023-02-28T06:13:49;158.50;;;148.82;;
38021;SDS011;23832;43.216;27.946;2023-02-28T06:15:55;161.43;;;151.77;;
38021;SDS011;23832;43.216;27.946;2023-02-28T06:17:57;155.93;;;146.35;;
38021;SDS011;23832;43.216;27.946;2023-02-28T06:20:00;155.75;;;146.25;;
38021;SDS011;23832;43.216;27.946;2023-02-28T06:22:07;168.43;;;157.63;;
38021;SDS011;23832;43.216;27.946;2023-02-28T06:24:08;167.20;;;156.00;;
38021;SDS011;23832;43.216;27.946;2023-02-28T06:26:11;162.75;;;152.55;;
38021;SDS011;23832;43.216;27.946;2023-02-28T06:28:13;167.65;;;157.07;;
38021;SDS011;23832;43.216;27.946;2023-02-28T06:30:16;161.57;;;151.68;;
38021;SDS011;23832;43.216;27.946;2023-02-28T06:32:18;165.00;;;154.90;;
38021;SDS011;23832;43.216;27.946;2023-02-28T06:34:20;163.20;;;153.35;;
38021;SDS011;23832;43.216;27.946;2023-02-28T06:36:22;161.30;;;151.43;;
38021;SDS011;23832;43.216;27.946;2023-02-28T06:38:25;158.50;;;148.77;;
38021;SDS011;23832;43.216;27.946;2023-02-28T06:40:28;163.27;;;153.38;;
38021;SDS011;23832;43.216;27.946;2023-02-28T06:42:35;160.45;;;150.85;;
38021;SDS011;23832;43.216;27.946;2023-02-28T06:44:37;163.57;;;153.75;;
38021;SDS011;23832;43.216;27.946;2023-02-28T06:46:40;162.95;;;153.13;;
38021;SDS011;23832;43.216;27.946;2023-02-28T06:48:43;160.70;;;151.10;;
38021;SDS011;23832;43.216;27.946;2023-02-28T06:50:45;164.63;;;154.82;;
38021;SDS011;23832;43.216;27.946;2023-02-28T06:52:47;163.63;;;153.95;;
38021;SDS011;23832;43.216;27.946;2023-02-28T06:54:55;162.88;;;153.13;;
38021;SDS011;23832;43.216;27.946;2023-02-28T06:57:01;161.07;;;151.48;;
38021;SDS011;23832;43.216;27.946;2023-02-28T06:59:04;162.02;;;152.23;;
38021;SDS011;23832;43.216;27.946;2023-02-28T07:01:08;160.98;;;151.15;;
38021;SDS011;23832;43.216;27.946;2023-02-28T07:03:10;159.77;;;149.93;;
38021;SDS011;23832;43.216;27.946;2023-02-28T07:05:14;160.02;;;150.27;;
38021;SDS011;23832;43.216;27.946;2023-02-28T07:07:16;160.55;;;150.95;;
38021;SDS011;23832;43.216;27.946;2023-02-28T07:09:18;162.30;;;152.38;;
38021;SDS011;23832;43.216;27.946;2023-02-28T07:11:22;158.93;;;149.45;;
38021;SDS011;23832;43.216;27.946;2023-02-28T07:13:26;156.50;;;147.10;;
38021;SDS011;23832;43.216;27.946;2023-02-28T07:15:29;158.52;;;149.02;;
38021;SDS011;23832;43.216;27.946;2023-02-28T07:17:31;161.18;;;151.40;;
38021;SDS011;23832;43.216;27.946;2023-02-28T07:19:33;158.93;;;149.30;;
38021;SDS011;23832;43.216;27.946;2023-02-28T07:21:35;163.77;;;154.00;;
38021;SDS011;23832;43.216;27.946;2023-02-28T07:23:37;160.60;;;150.85;;
38021;SDS011;23832;43.216;27.946;2023-02-28T07:25:40;163.13;;;153.32;;
38021;SDS011;23832;43.216;27.946;2023-02-28T07:27:45;162.38;;;152.65;;
38021;SDS011;23832;43.216;27.946;2023-02-28T07:29:47;158.93;;;149.38;;
38021;SDS011;23832;43.216;27.946;2023-02-28T07:31:49;162.68;;;152.90;;
38021;SDS011;23832;43.216;27.946;2023-02-28T07:33:53;159.23;;;149.65;;
38021;SDS011;23832;43.216;27.946;2023-02-28T07:35:59;165.45;;;155.48;;
38021;SDS011;23832;43.216;27.946;2023-02-28T07:38:02;157.52;;;148.00;;
38021;SDS011;23832;43.216;27.946;2023-02-28T07:40:06;162.52;;;152.80;;
38021;SDS011;23832;43.216;27.946;2023-02-28T07:42:11;160.57;;;150.85;;
38021;SDS011;23832;43.216;27.946;2023-02-28T07:44:15;154.27;;;145.07;;
38021;SDS011;23832;43.216;27.946;2023-02-28T07:46:17;159.35;;;149.95;;
38021;SDS011;23832;43.216;27.946;2023-02-28T07:48:21;161.57;;;151.60;;
38021;SDS011;23832;43.216;27.946;2023-02-28T07:50:23;159.82;;;150.05;;
38021;SDS011;23832;43.216;27.946;2023-02-28T07:52:25;159.43;;;149.82;;
38021;SDS011;23832;43.216;27.946;2023-02-28T07:54:27;156.30;;;147.00;;
38021;SDS011;23832;43.216;27.946;2023-02-28T07:56:29;158.25;;;148.77;;
38021;SDS011;23832;43.216;27.946;2023-02-28T07:58:31;157.98;;;148.68;;
38021;SDS011;23832;43.216;27.946;2023-02-28T08:00:35;156.50;;;147.30;;
38021;SDS011;23832;43.216;27.946;2023-02-28T08:02:37;159.15;;;149.55;;
38021;SDS011;23832;43.216;27.946;2023-02-28T08:04:39;155.27;;;146.13;;
38021;SDS011;23832;43.216;27.946;2023-02-28T08:06:44;156.30;;;146.90;;
38021;SDS011;23832;43.216;27.946;2023-02-28T08:08:46;159.60;;;150.15;;
38021;SDS011;23832;43.216;27.946;2023-02-28T08:10:49;152.55;;;143.40;;
38021;SDS011;23832;43.216;27.946;2023-02-28T08:12:51;154.85;;;145.75;;
38021;SDS011;23832;43.216;27.946;2023-02-28T08:14:52;158.93;;;149.60;;
38021;SDS011;23832;43.216;27.946;2023-02-28T08:16:56;156.25;;;147.15;;
38021;SDS011;23832;43.216;27.946;2023-02-28T08:18:58;157.30;;;147.88;;
38021;SDS011;23832;43.216;27.946;2023-02-28T08:21:05;154.70;;;145.40;;
38021;SDS011;23832;43.216;27.946;2023-02-28T08:23:07;155.05;;;145.70;;
38021;SDS011;23832;43.216;27.946;2023-02-28T08:25:10;154.63;;;145.13;;
38021;SDS011;23832;43.216;27.946;2023-02-28T08:27:12;156.20;;;147.02;;
38021;SDS011;23832;43.216;27.946;2023-02-28T08:29:14;156.55;;;147.25;;
38021;SDS011;23832;43.216;27.946;2023-02-28T08:31:16;155.90;;;146.77;;
38021;SDS011;23832;43.216;27.946;2023-02-28T08:33:20;157.38;;;148.07;;
38021;SDS011;23832;43.216;27.946;2023-02-28T08:35:22;159.38;;;150.00;;
38021;SDS011;23832;43.216;27.946;2023-02-28T08:37:24;185.18;;;172.90;;
38021;SDS011;23832;43.216;27.946;2023-02-28T08:39:27;183.43;;;170.93;;
38021;SDS011;23832;43.216;27.946;2023-02-28T08:41:29;185.05;;;172.45;;
38021;SDS011;23832;43.216;27.946;2023-02-28T08:43:31;165.48;;;154.98;;
38021;SDS011;23832;43.216;27.946;2023-02-28T08:45:33;199.55;;;185.65;;
38021;SDS011;23832;43.216;27.946;2023-02-28T08:47:37;194.73;;;181.30;;
38021;SDS011;23832;43.216;27.946;2023-02-28T08:49:41;168.98;;;157.93;;
38021;SDS011;23832;43.216;27.946;2023-02-28T08:51:43;160.27;;;150.65;;
38021;SDS011;23832;43.216;27.946;2023-02-28T08:53:45;155.38;;;145.98;;
38021;SDS011;23832;43.216;27.946;2023-02-28T08:55:57;153.50;;;144.38;;
38021;SDS011;23832;43.216;27.946;2023-02-28T08:58:00;174.02;;;162.93;;
38021;SDS011;23832;43.216;27.946;2023-02-28T09:00:02;228.05;;;210.75;;
38021;SDS011;23832;43.216;27.946;2023-02-28T09:02:05;184.57;;;172.05;;
38021;SDS011;23832;43.216;27.946;2023-02-28T09:04:07;184.40;;;171.85;;
38021;SDS011;23832;43.216;27.946;2023-02-28T09:06:12;158.32;;;148.50;;
38021;SDS011;23832;43.216;27.946;2023-02-28T09:08:15;154.52;;;145.32;;
38021;SDS011;23832;43.216;27.946;2023-02-28T09:10:19;150.40;;;141.40;;
38021;SDS011;23832;43.216;27.946;2023-02-28T09:12:21;153.40;;;144.40;;
38021;SDS011;23832;43.216;27.946;2023-02-28T09:14:23;152.50;;;143.52;;
38021;SDS011;23832;43.216;27.946;2023-02-28T09:16:25;153.27;;;144.30;;
38021;SDS011;23832;43.216;27.946;2023-02-28T09:18:28;150.27;;;141.52;;
38021;SDS011;23832;43.216;27.946;2023-02-28T09:20:30;150.40;;;141.38;;
38021;SDS011;23832;43.216;27.946;2023-02-28T09:22:34;156.15;;;146.98;;
38021;SDS011;23832;43.216;27.946;2023-02-28T09:24:36;152.93;;;143.85;;
38021;SDS011;23832;43.216;27.946;2023-02-28T09:26:39;156.10;;;146.98;;
38021;SDS011;23832;43.216;27.946;2023-02-28T09:28:42;158.23;;;148.85;;
38021;SDS011;23832;43.216;27.946;2023-02-28T09:30:45;152.95;;;143.93;;
38021;SDS011;23832;43.216;27.946;2023-02-28T09:32:48;151.23;;;142.32;;
38021;SDS011;23832;43.216;27.946;2023-02-28T09:34:52;154.20;;;145.20;;
38021;SDS011;23832;43.216;27.946;2023-02-28T09:36:54;152.40;;;143.30;;
38021;SDS011;23832;43.216;27.946;2023-02-28T09:38:57;152.32;;;143.23;;
38021;SDS011;23832;43.216;27.946;2023-02-28T09:41:00;150.40;;;141.40;;
38021;SDS011;23832;43.216;27.946;2023-02-28T09:43:04;156.43;;;147.18;;
38021;SDS011;23832;43.216;27.946;2023-02-28T09:45:10;153.55;;;144.45;;
38021;SDS011;23832;43.216;27.946;2023-02-28T09:47:25;152.90;;;143.95;;
38021;SDS011;23832;43.216;27.946;2023-02-28T09:49:34;153.80;;;144.65;;
38021;SDS011;23832;43.216;27.946;2023-02-28T09:51:44;155.10;;;145.80;;
38021;SDS011;23832;43.216;27.946;2023-02-28T09:53:51;156.48;;;147.30;;
38021;SDS011;23832;43.216;27.946;2023-02-28T09:55:57;154.27;;;145.07;;
38021;SDS011;23832;43.216;27.946;2023-02-28T09:58:02;154.07;;;145.02;;
38021;SDS011;23832;43.216;27.946;2023-02-28T10:00:06;159.23;;;149.75;;
38021;SDS011;23832;43.216;27.946;2023-02-28T10:02:19;153.20;;;144.10;;
38021;SDS011;23832;43.216;27.946;2023-02-28T10:04:42;157.10;;;147.77;;
38021;SDS011;23832;43.216;27.946;2023-02-28T10:06:51;152.20;;;143.10;;
38021;SDS011;23832;43.216;27.946;2023-02-28T10:08:56;151.05;;;141.88;;
38021;SDS011;23832;43.216;27.946;2023-02-28T10:11:06;152.00;;;142.95;;
38021;SDS011;23832;43.216;27.946;2023-02-28T10:13:13;153.82;;;144.60;;
38021;SDS011;23832;43.216;27.946;2023-02-28T10:15:21;153.52;;;144.52;;
38021;SDS011;23832;43.216;27.946;2023-02-28T10:17:29;151.55;;;142.60;;
38021;SDS011;23832;43.216;27.946;2023-02-28T10:19:40;153.20;;;144.20;;
38021;SDS011;23832;43.216;27.946;2023-02-28T10:21:47;157.68;;;148.20;;
38021;SDS011;23832;43.216;27.946;2023-02-28T10:24:01;151.95;;;142.95;;
38021;SDS011;23832;43.216;27.946;2023-02-28T10:26:09;157.20;;;147.90;;
38021;SDS011;23832;43.216;27.946;2023-02-28T10:28:14;150.93;;;141.95;;
38021;SDS011;23832;43.216;27.946;2023-02-28T10:30:21;158.73;;;148.85;;
38021;SDS011;23832;43.216;27.946;2023-02-28T10:32:23;157.07;;;147.77;;
38021;SDS011;23832;43.216;27.946;2023-02-28T10:34:28;151.23;;;142.43;;
38021;SDS011;23832;43.216;27.946;2023-02-28T10:36:30;151.32;;;142.30;;
38021;SDS011;23832;43.216;27.946;2023-02-28T10:38:33;157.07;;;147.68;;
38021;SDS011;23832;43.216;27.946;2023-02-28T10:40:36;154.65;;;145.65;;
38021;SDS011;23832;43.216;27.946;2023-02-28T10:42:39;158.68;;;149.38;;
38021;SDS011;23832;43.216;27.946;2023-02-28T10:44:42;157.85;;;148.40;;
38021;SDS011;23832;43.216;27.946;2023-02-28T10:46:44;158.32;;;149.00;;
38021;SDS011;23832;43.216;27.946;2023-02-28T10:48:59;157.10;;;147.70;;
38021;SDS011;23832;43.216;27.946;2023-02-28T10:51:05;154.80;;;145.65;;
38021;SDS011;23832;43.216;27.946;2023-02-28T10:53:14;155.35;;;146.13;;
38021;SDS011;23832;43.216;27.946;2023-02-28T10:55:26;154.20;;;144.98;;
38021;SDS011;23832;43.216;27.946;2023-02-28T10:57:30;158.60;;;149.07;;
38021;SDS011;23832;43.216;27.946;2023-02-28T10:59:34;154.43;;;145.35;;
38021;SDS011;23832;43.216;27.946;2023-02-28T11:01:37;158.63;;;149.32;;
38021;SDS011;23832;43.216;27.946;2023-02-28T11:03:41;153.98;;;144.77;;
38021;SDS011;23832;43.216;27.946;2023-02-28T11:05:43;154.55;;;145.38;;
38021;SDS011;23832;43.216;27.946;2023-02-28T11:07:50;154.98;;;145.88;;
38021;SDS011;23832;43.216;27.946;2023-02-28T11:09:53;154.80;;;145.75;;
38021;SDS011;23832;43.216;27.946;2023-02-28T11:11:57;154.30;;;145.20;;
38021;SDS011;23832;43.216;27.946;2023-02-28T11:14:02;154.15;;;145.15;;
38021;SDS011;23832;43.216;27.946;2023-02-28T11:16:09;156.30;;;147.18;;
38021;SDS011;23832;43.216;27.946;2023-02-28T11:18:19;156.70;;;147.40;;
38021;SDS011;23832;43.216;27.946;2023-02-28T11:20:30;153.38;;;144.27;;
38021;SDS011;23832;43.216;27.946;2023-02-28T11:22:35;154.82;;;145.63;;
38021;SDS011;23832;43.216;27.946;2023-02-28T11:24:41;156.65;;;147.45;;
38021;SDS011;23832;43.216;27.946;2023-02-28T11:26:46;158.50;;;149.15;;
38021;SDS011;23832;43.216;27.946;2023-02-28T11:28:50;160.45;;;150.95;;
38021;SDS011;23832;43.216;27.946;2023-02-28T11:31:18;155.65;;;146.45;;
38021;SDS011;23832;43.216;27.946;2023-02-28T11:33:23;157.25;;;147.35;;
38021;SDS011;23832;43.216;27.946;2023-02-28T11:35:30;160.75;;;151.25;;
38021;SDS011;23832;43.216;27.946;2023-02-28T11:37:36;158.23;;;148.63;;
38021;SDS011;23832;43.216;27.946;2023-02-28T11:39:39;151.10;;;142.10;;
38021;SDS011;23832;43.216;27.946;2023-02-28T11:41:47;153.95;;;144.85;;
38021;SDS011;23832;43.216;27.946;2023-02-28T11:44:13;151.38;;;142.45;;